Time;durP1;ratioP1;P1;durP2;ratioP2;P2;SDS_P1;SDS_P2;PMS_P1;PMS_P2;Temp;Humidity;BMP_temperature;BMP_pressure;BME280_temperature;BME280_humidity;BME280_pressure;Samples;Min_cycle;Max_cycle;Signal;HPM_P1;HPM_P2
2023/07/24 00:01:52;;;;;;;3.83;2.80;;;18.60;99.90;;;;;;5117957;28;20211;-51
2023/07/24 00:04:18;;;;;;;2.45;2.25;;;18.50;99.90;;;;;;5117534;28;20715;-53
2023/07/24 00:06:43;;;;;;;3.72;2.60;;;18.50;99.90;;;;;;5117543;28;20204;-53
2023/07/24 00:09:09;;;;;;;3.38;2.20;;;18.50;99.90;;;;;;5117505;28;20580;-52
2023/07/24 00:11:35;;;;;;;4.85;2.55;;;18.40;99.90;;;;;;5117202;28;20169;-52
2023/07/24 00:14:00;;;;;;;2.40;2.17;;;18.50;99.90;;;;;;5117129;28;20169;-52
2023/07/24 00:16:26;;;;;;;3.20;2.47;;;18.50;99.90;;;;;;5117490;28;20170;-53
2023/07/24 00:18:52;;;;;;;4.57;2.45;;;18.60;99.90;;;;;;5117206;28;20255;-53
2023/07/24 00:21:17;;;;;;;2.55;2.25;;;18.50;99.90;;;;;;5117244;28;20180;-54
2023/07/24 00:23:43;;;;;;;3.67;2.47;;;18.50;99.90;;;;;;5117150;28;20223;-49
2023/07/24 00:26:08;;;;;;;7.53;3.08;;;18.60;99.90;;;;;;5116965;28;20181;-52
2023/07/24 00:28:34;;;;;;;3.33;2.70;;;18.50;99.90;;;;;;5117156;28;20177;-51
2023/07/24 00:31:00;;;;;;;2.20;2.08;;;18.60;99.90;;;;;;5115804;28;20196;-52
2023/07/24 00:33:25;;;;;;;3.63;2.30;;;18.50;99.90;;;;;;5116762;28;20169;-49
2023/07/24 00:35:54;;;;;;;4.53;2.20;;;18.50;99.90;;;;;;5116991;28;20207;-50
2023/07/24 00:38:20;;;;;;;2.33;2.10;;;18.60;99.90;;;;;;5116975;28;20192;-49
2023/07/24 00:40:46;;;;;;;2.40;1.98;;;18.60;99.90;;;;;;5116882;28;20173;-52
2023/07/24 00:43:11;;;;;;;3.05;2.22;;;18.50;99.90;;;;;;5117001;28;20615;-50
2023/07/24 00:45:37;;;;;;;1.90;1.75;;;18.50;99.90;;;;;;5115440;28;20662;-52
2023/07/24 00:48:03;;;;;;;2.20;2.00;;;18.40;99.90;;;;;;5116781;28;20260;-52
2023/07/24 00:50:30;;;;;;;2.63;1.98;;;18.50;99.90;;;;;;5116902;28;20521;-52
2023/07/24 00:52:56;;;;;;;2.33;1.65;;;18.50;99.90;;;;;;5116686;28;20230;-51
2023/07/24 00:55:21;;;;;;;2.38;2.10;;;18.50;99.90;;;;;;5116652;28;20173;-52
2023/07/24 00:57:47;;;;;;;3.65;2.20;;;18.60;99.90;;;;;;5116496;28;20180;-51
2023/07/24 01:00:13;;;;;;;2.85;2.00;;;18.60;99.90;;;;;;5116508;28;20181;-49
2023/07/24 01:02:39;;;;;;;1.75;1.63;;;18.50;99.90;;;;;;5116468;28;20639;-51
2023/07/24 01:05:05;;;;;;;3.20;2.10;;;18.50;99.90;;;;;;5115993;28;20257;-52
2023/07/24 01:07:31;;;;;;;1.60;1.50;;;18.50;99.90;;;;;;5116410;28;20182;-50
2023/07/24 01:09:57;;;;;;;2.35;2.08;;;18.50;99.90;;;;;;5116355;28;20223;-51
2023/07/24 01:12:50;;;;;;;1.70;1.60;;;18.40;99.90;;;;;;5116278;28;20175;-52
2023/07/24 01:15:30;;;;;;;3.53;1.90;;;18.50;99.90;;;;;;5115808;28;20177;-52
2023/07/24 01:18:03;;;;;;;3.53;1.92;;;18.40;99.90;;;;;;5116217;28;20156;-52
2023/07/24 01:20:30;;;;;;;2.80;2.08;;;18.40;99.90;;;;;;5115006;28;20589;-53
2023/07/24 01:23:19;;;;;;;3.65;1.80;;;18.50;99.90;;;;;;5116021;28;20189;-52
2023/07/24 01:26:03;;;;;;;2.78;2.00;;;18.30;99.90;;;;;;5085225;28;20224;-52
2023/07/24 01:28:29;;;;;;;2.55;1.90;;;18.40;99.90;;;;;;5116088;28;20171;-53
2023/07/24 01:30:55;;;;;;;2.15;1.90;;;18.40;99.90;;;;;;5115866;28;20222;-50
2023/07/24 01:33:22;;;;;;;3.25;2.25;;;18.40;99.90;;;;;;5115568;28;20564;-53
2023/07/24 01:35:53;;;;;;;2.42;1.98;;;18.40;99.90;;;;;;5115815;28;20199;-52
2023/07/24 01:38:19;;;;;;;3.28;2.03;;;18.50;99.90;;;;;;5115861;28;20165;-52
2023/07/24 01:40:45;;;;;;;2.67;2.10;;;18.50;99.90;;;;;;5115669;28;20185;-51
2023/07/24 01:43:11;;;;;;;2.78;1.95;;;18.50;99.90;;;;;;5115675;28;20169;-52
2023/07/24 01:45:37;;;;;;;3.30;1.80;;;18.50;99.90;;;;;;5115568;28;20205;-52
2023/07/24 01:48:06;;;;;;;2.00;1.80;;;18.50;99.90;;;;;;5115258;28;20653;-52
2023/07/24 01:50:32;;;;;;;2.35;1.95;;;18.30;99.90;;;;;;5115567;28;20177;-53
2023/07/24 01:52:58;;;;;;;3.00;1.90;;;18.30;99.90;;;;;;5115501;28;20180;-53
2023/07/24 01:55:23;;;;;;;4.22;2.05;;;18.40;99.90;;;;;;5115458;28;20177;-52
2023/07/24 01:57:49;;;;;;;2.33;2.05;;;18.40;99.90;;;;;;5115333;28;20177;-52
2023/07/24 02:00:15;;;;;;;2.13;2.00;;;18.30;99.90;;;;;;5115393;28;20618;-52
2023/07/24 02:02:40;;;;;;;3.50;2.03;;;18.30;99.90;;;;;;5115322;28;20173;-52
2023/07/24 02:05:06;;;;;;;2.08;1.90;;;18.30;99.90;;;;;;5115178;28;20221;-51
2023/07/24 02:07:32;;;;;;;2.28;2.08;;;18.20;99.90;;;;;;5115210;28;20581;-53
2023/07/24 02:09:57;;;;;;;4.53;1.95;;;18.00;99.90;;;;;;5115228;28;20170;-50
2023/07/24 02:12:23;;;;;;;2.95;2.05;;;18.00;99.90;;;;;;5114846;28;20177;-51
2023/07/24 02:14:51;;;;;;;3.33;2.30;;;18.10;99.90;;;;;;5114648;28;20626;-52
2023/07/24 02:17:17;;;;;;;3.60;2.30;;;18.20;99.90;;;;;;5114899;28;20181;-51
2023/07/24 02:19:43;;;;;;;2.72;1.95;;;18.00;99.90;;;;;;5115018;28;20225;-49
2023/07/24 02:22:08;;;;;;;3.90;2.10;;;18.10;99.90;;;;;;5114883;28;20180;-49
2023/07/24 02:24:34;;;;;;;2.90;2.22;;;18.10;99.90;;;;;;5114795;28;20197;-52
2023/07/24 02:27:00;;;;;;;1.98;1.88;;;18.10;99.90;;;;;;5114858;28;20178;-51
2023/07/24 02:29:26;;;;;;;4.15;2.28;;;18.00;99.90;;;;;;5114760;28;20173;-51
2023/07/24 02:31:53;;;;;;;3.55;2.20;;;18.10;99.90;;;;;;5114428;28;20703;-51
2023/07/24 02:34:24;;;;;;;2.10;2.00;;;18.00;99.90;;;;;;5114716;28;20197;-51
2023/07/24 02:36:50;;;;;;;4.10;2.17;;;18.00;99.90;;;;;;5114627;28;20180;-52
2023/07/24 02:39:15;;;;;;;2.50;2.17;;;18.00;99.90;;;;;;5114570;28;20169;-52
2023/07/24 02:41:41;;;;;;;3.20;1.92;;;18.00;99.90;;;;;;5114535;28;20175;-52
2023/07/24 02:44:07;;;;;;;2.53;1.90;;;18.00;99.90;;;;;;5114469;28;20201;-52
2023/07/24 02:46:32;;;;;;;2.00;1.80;;;18.00;99.90;;;;;;5114219;28;20205;-50
2023/07/24 02:48:58;;;;;;;2.28;2.00;;;18.10;99.90;;;;;;5114465;28;20219;-51
2023/07/24 02:51:24;;;;;;;3.42;2.25;;;18.10;99.90;;;;;;5114408;28;20169;-52
2023/07/24 02:53:49;;;;;;;4.05;2.40;;;18.10;99.90;;;;;;5114363;28;20252;-53
2023/07/24 02:56:15;;;;;;;3.22;2.47;;;18.00;99.90;;;;;;5114370;28;20208;-52
2023/07/24 02:58:41;;;;;;;3.22;2.28;;;18.00;99.90;;;;;;5114318;28;20208;-53
2023/07/24 03:01:07;;;;;;;4.15;2.50;;;18.00;99.90;;;;;;5114272;28;20715;-51
2023/07/24 03:03:34;;;;;;;3.58;2.22;;;18.10;99.90;;;;;;5114158;28;20177;-53
2023/07/24 03:06:00;;;;;;;4.15;2.42;;;18.00;99.90;;;;;;5114159;28;20201;-52
2023/07/24 03:08:26;;;;;;;3.78;2.67;;;17.90;99.90;;;;;;5112814;28;20272;-52
2023/07/24 03:10:51;;;;;;;3.28;2.70;;;17.80;99.90;;;;;;5114118;28;20265;-51
2023/07/24 03:13:17;;;;;;;3.75;2.90;;;17.80;99.90;;;;;;5114133;28;20252;-53
2023/07/24 03:15:43;;;;;;;4.13;2.78;;;17.80;99.90;;;;;;5114067;28;20170;-51
2023/07/24 03:18:08;;;;;;;3.88;2.63;;;17.80;99.90;;;;;;5112574;28;20620;-51
2023/07/24 03:20:34;;;;;;;3.05;2.60;;;17.90;99.90;;;;;;5114002;28;20320;-50
2023/07/24 03:23:00;;;;;;;4.32;2.78;;;17.90;99.90;;;;;;5113950;28;20177;-52
2023/07/24 03:25:25;;;;;;;4.13;2.83;;;17.90;99.90;;;;;;5113948;28;20228;-51
2023/07/24 03:27:51;;;;;;;5.93;2.83;;;17.90;99.90;;;;;;5119488;28;20310;-50
2023/07/24 03:30:16;;;;;;;5.30;3.33;;;17.90;99.90;;;;;;5121014;28;20169;-52
2023/07/24 03:32:42;;;;;;;3.22;2.53;;;17.80;99.90;;;;;;5120469;28;20177;-50
2023/07/24 03:35:08;;;;;;;3.90;2.40;;;17.80;99.90;;;;;;5120628;28;20177;-54
2023/07/24 03:37:35;;;;;;;4.38;2.10;;;17.70;99.90;;;;;;5120743;28;20266;-51
2023/07/24 03:40:01;;;;;;;3.22;2.35;;;17.70;99.90;;;;;;5120658;27;20251;-51
2023/07/24 03:42:29;;;;;;;2.38;2.17;;;17.60;99.90;;;;;;5120316;28;20625;-51
2023/07/24 03:44:55;;;;;;;2.42;2.13;;;17.70;99.90;;;;;;5120565;28;20273;-49
2023/07/24 03:47:21;;;;;;;3.20;2.45;;;17.60;99.90;;;;;;5120612;28;20188;-51
2023/07/24 03:49:46;;;;;;;2.28;2.08;;;17.50;99.90;;;;;;5120641;28;20538;-50
2023/07/24 03:52:12;;;;;;;2.83;2.53;;;17.60;99.90;;;;;;5120841;28;20181;-52
2023/07/24 03:54:38;;;;;;;2.95;2.33;;;17.50;99.90;;;;;;5120586;28;20181;-48
2023/07/24 03:57:04;;;;;;;2.38;2.17;;;17.40;99.90;;;;;;5120482;28;20230;-51
2023/07/24 03:59:30;;;;;;;3.50;2.33;;;17.40;99.90;;;;;;5120625;27;20510;-51
2023/07/24 04:01:56;;;;;;;3.58;2.50;;;17.40;99.90;;;;;;5120500;28;20241;-52
2023/07/24 04:04:22;;;;;;;3.78;2.67;;;17.30;99.90;;;;;;5120108;28;20196;-53
2023/07/24 04:06:48;;;;;;;3.05;2.65;;;17.30;99.90;;;;;;5120429;28;20173;-51
2023/07/24 04:09:16;;;;;;;3.00;2.60;;;17.30;99.90;;;;;;5120047;28;20175;-53
2023/07/24 04:11:43;;;;;;;3.92;2.85;;;17.30;99.90;;;;;;5120386;28;20537;-50
2023/07/24 04:14:09;;;;;;;3.47;2.90;;;17.30;99.90;;;;;;5120080;28;20173;-51
2023/07/24 04:16:35;;;;;;;3.47;2.88;;;17.20;99.90;;;;;;5120609;28;20525;-50
2023/07/24 04:19:01;;;;;;;3.20;2.90;;;17.10;99.90;;;;;;5120075;28;20286;-49
2023/07/24 04:21:26;;;;;;;3.53;3.08;;;17.20;99.90;;;;;;5120267;28;20169;-51
2023/07/24 04:23:52;;;;;;;3.92;3.20;;;17.10;99.90;;;;;;5120226;28;20244;-50
2023/07/24 04:26:17;;;;;;;3.03;2.70;;;17.10;99.90;;;;;;5120313;28;20209;-52
2023/07/24 04:28:43;;;;;;;3.58;3.05;;;17.00;99.90;;;;;;5119935;28;20252;-52
2023/07/24 04:31:09;;;;;;;4.13;3.10;;;17.00;99.90;;;;;;5120190;28;20256;-52
2023/07/24 04:33:34;;;;;;;5.60;5.13;;;17.00;99.90;;;;;;5120221;28;20176;-52
2023/07/24 04:36:00;;;;;;;3.40;3.00;;;17.00;99.90;;;;;;5120192;28;20526;-52
2023/07/24 04:38:26;;;;;;;7.53;2.75;;;17.00;99.90;;;;;;5117872;28;20615;-49
2023/07/24 04:40:52;;;;;;;3.30;2.67;;;16.90;99.90;;;;;;5116916;28;20174;-50
2023/07/24 04:43:17;;;;;;;3.10;2.80;;;17.00;99.90;;;;;;5116908;28;20727;-53
2023/07/24 04:45:43;;;;;;;3.00;2.72;;;17.10;99.90;;;;;;5116856;28;20224;-51
2023/07/24 04:48:09;;;;;;;2.85;2.42;;;17.10;99.90;;;;;;5116774;28;20178;-52
2023/07/24 04:50:34;;;;;;;4.32;2.88;;;17.00;99.90;;;;;;5116438;28;20258;-51
2023/07/24 04:53:00;;;;;;;3.60;2.78;;;17.00;99.90;;;;;;5117001;28;20176;-51
2023/07/24 04:55:26;;;;;;;3.17;2.80;;;17.10;99.90;;;;;;5116694;28;20177;-52
2023/07/24 04:57:51;;;;;;;5.50;3.00;;;17.00;99.90;;;;;;5116577;28;20174;-52
2023/07/24 05:00:17;;;;;;;3.00;2.55;;;17.00;99.90;;;;;;5116552;28;20201;-52
2023/07/24 05:02:43;;;;;;;2.75;2.55;;;17.00;99.90;;;;;;5115234;28;20181;-48
2023/07/24 05:05:09;;;;;;;3.92;3.03;;;17.00;99.90;;;;;;5116410;28;20646;-52
2023/07/24 05:07:34;;;;;;;3.65;3.08;;;17.00;99.90;;;;;;5116381;28;20699;-53
2023/07/24 05:10:00;;;;;;;5.15;2.70;;;16.90;99.90;;;;;;5116088;28;20177;-53
2023/07/24 05:12:26;;;;;;;3.38;2.78;;;17.00;99.90;;;;;;5116322;28;20180;-52
2023/07/24 05:14:51;;;;;;;4.13;2.88;;;17.00;99.90;;;;;;5116268;28;20280;-53
2023/07/24 05:17:18;;;;;;;3.50;2.50;;;17.00;99.90;;;;;;5116201;28;20169;-54
2023/07/24 05:19:43;;;;;;;3.35;2.70;;;17.00;99.90;;;;;;5115665;28;20231;-52
2023/07/24 05:22:10;;;;;;;3.00;2.70;;;16.90;99.90;;;;;;5116086;28;20256;-53
2023/07/24 05:24:36;;;;;;;4.20;3.03;;;16.80;99.90;;;;;;5115966;28;20205;-52
2023/07/24 05:27:03;;;;;;;3.80;2.90;;;16.90;99.90;;;;;;5116054;28;20178;-53
2023/07/24 05:29:29;;;;;;;2.83;2.60;;;16.90;99.90;;;;;;5115933;28;20310;-52
2023/07/24 05:31:54;;;;;;;3.83;2.70;;;17.10;99.90;;;;;;5116044;28;20607;-53
2023/07/24 05:34:20;;;;;;;2.78;2.50;;;17.00;99.90;;;;;;5115915;28;20652;-53
2023/07/24 05:36:45;;;;;;;4.03;2.53;;;17.00;99.90;;;;;;5114197;28;20201;-53
2023/07/24 05:39:11;;;;;;;3.25;2.80;;;17.10;99.90;;;;;;5114941;28;20245;-52
2023/07/24 05:41:37;;;;;;;3.03;2.70;;;17.10;99.90;;;;;;5115541;28;20177;-50
2023/07/24 05:44:02;;;;;;;5.35;2.67;;;17.10;99.90;;;;;;5115384;28;20207;-52
2023/07/24 05:46:28;;;;;;;3.13;2.70;;;17.10;99.90;;;;;;5115253;28;20576;-53
2023/07/24 05:48:54;;;;;;;3.67;3.00;;;17.10;99.90;;;;;;5115604;28;20201;-52
2023/07/24 05:51:19;;;;;;;3.25;2.95;;;17.30;99.90;;;;;;5114181;28;20618;-54
2023/07/24 05:53:45;;;;;;;4.95;2.85;;;17.30;99.90;;;;;;5115479;28;20211;-54
2023/07/24 05:56:10;;;;;;;3.50;3.20;;;17.20;99.90;;;;;;5114911;28;20595;-53
2023/07/24 05:58:36;;;;;;;3.30;3.00;;;17.30;99.90;;;;;;5115007;28;20173;-51
2023/07/24 06:01:02;;;;;;;3.10;2.90;;;17.30;99.90;;;;;;5115103;28;20582;-50
2023/07/24 06:03:27;;;;;;;5.45;3.00;;;17.30;99.90;;;;;;5115030;28;20191;-55
2023/07/24 06:05:54;;;;;;;4.30;3.00;;;17.30;99.90;;;;;;5114849;28;20673;-53
2023/07/24 06:08:21;;;;;;;3.90;2.90;;;17.40;99.90;;;;;;5114640;28;20171;-51
2023/07/24 06:10:48;;;;;;;3.33;3.03;;;17.50;99.90;;;;;;5114607;28;20185;-52
2023/07/24 06:13:18;;;;;;;3.85;3.45;;;17.70;99.90;;;;;;5114801;28;20530;-49
2023/07/24 06:15:43;;;;;;;3.80;3.50;;;17.70;99.90;;;;;;5114795;28;20634;-49
2023/07/24 06:18:10;;;;;;;4.82;3.63;;;17.90;99.90;;;;;;5114760;28;20169;-48
2023/07/24 06:20:35;;;;;;;3.40;3.08;;;17.80;99.90;;;;;;5114981;28;20169;-52
2023/07/24 06:23:03;;;;;;;3.90;3.47;;;17.80;99.90;;;;;;5114434;28;20188;-51
2023/07/24 06:25:30;;;;;;;3.30;3.00;;;17.80;99.90;;;;;;5114747;28;20201;-51
2023/07/24 06:27:56;;;;;;;3.40;3.10;;;17.90;99.90;;;;;;5114869;28;20177;-53
2023/07/24 06:30:21;;;;;;;4.63;3.00;;;17.90;99.90;;;;;;5114810;28;20268;-52
2023/07/24 06:32:47;;;;;;;4.15;3.40;;;18.00;99.90;;;;;;5114770;28;20208;-49
2023/07/24 06:35:12;;;;;;;3.92;3.28;;;18.10;99.90;;;;;;5114359;28;20177;-49
2023/07/24 06:37:38;;;;;;;3.85;3.30;;;18.10;99.90;;;;;;5114581;28;20208;-51
2023/07/24 06:40:05;;;;;;;5.00;3.28;;;18.20;99.90;;;;;;5114309;28;20679;-52
2023/07/24 06:42:30;;;;;;;5.35;3.53;;;18.30;99.90;;;;;;5114670;28;20177;-49
2023/07/24 06:44:56;;;;;;;4.78;3.33;;;18.30;99.90;;;;;;5114572;28;20200;-53
2023/07/24 06:47:22;;;;;;;3.30;3.00;;;18.20;99.90;;;;;;5114437;28;20177;-52
2023/07/24 06:49:47;;;;;;;3.28;2.97;;;18.20;99.90;;;;;;5114449;28;20165;-52
2023/07/24 06:52:13;;;;;;;3.72;3.25;;;18.20;99.90;;;;;;5114369;28;20569;-54
2023/07/24 06:54:39;;;;;;;8.48;3.70;;;18.10;99.90;;;;;;5114498;28;20173;-51
2023/07/24 06:57:04;;;;;;;6.15;3.97;;;18.00;99.90;;;;;;5114337;28;20177;-51
2023/07/24 06:59:30;;;;;;;26.08;5.82;;;18.20;99.90;;;;;;5114499;28;20173;-54
2023/07/24 07:01:56;;;;;;;15.82;5.10;;;18.10;99.90;;;;;;5114177;28;20181;-51
2023/07/24 07:04:21;;;;;;;8.88;4.50;;;18.00;99.90;;;;;;5114140;28;20201;-50
2023/07/24 07:06:47;;;;;;;6.57;3.90;;;17.90;99.90;;;;;;5114201;28;20177;-52
2023/07/24 07:09:13;;;;;;;5.72;4.57;;;17.70;99.90;;;;;;5114157;28;20169;-52
2023/07/24 07:11:38;;;;;;;4.65;4.20;;;17.70;99.90;;;;;;5114087;28;20269;-53
2023/07/24 07:14:04;;;;;;;6.38;5.00;;;17.70;99.90;;;;;;5114060;28;20181;-50
2023/07/24 07:16:30;;;;;;;5.72;5.15;;;17.70;99.90;;;;;;5113946;28;20193;-52
2023/07/24 07:18:56;;;;;;;6.93;5.05;;;17.80;99.90;;;;;;5114003;28;20241;-51
2023/07/24 07:21:21;;;;;;;6.32;4.55;;;17.80;99.90;;;;;;5113964;28;20169;-51
2023/07/24 07:23:47;;;;;;;6.13;4.72;;;17.70;99.90;;;;;;5114003;28;20170;-53
2023/07/24 07:26:12;;;;;;;5.63;5.13;;;17.70;99.90;;;;;;5113894;28;20300;-54
2023/07/24 07:28:38;;;;;;;5.05;4.65;;;17.60;99.90;;;;;;5113885;28;20177;-53
2023/07/24 07:31:04;;;;;;;5.82;4.60;;;17.50;99.90;;;;;;5113833;28;20259;-51
2023/07/24 07:33:30;;;;;;;5.20;4.70;;;17.70;99.90;;;;;;5113853;28;20209;-51
2023/07/24 07:35:55;;;;;;;5.82;5.32;;;17.80;99.90;;;;;;5114143;28;20181;-53
2023/07/24 07:38:22;;;;;;;5.72;5.22;;;17.90;99.90;;;;;;5113876;28;20170;-53
2023/07/24 07:40:48;;;;;;;6.30;5.85;;;18.10;99.90;;;;;;5113899;28;20176;-52
2023/07/24 07:43:14;;;;;;;6.00;5.50;;;18.20;99.90;;;;;;5113931;28;20169;-51
2023/07/24 07:45:40;;;;;;;5.93;5.32;;;18.30;99.90;;;;;;5113704;28;20254;-51
2023/07/24 07:48:05;;;;;;;6.38;4.93;;;18.40;99.90;;;;;;5113880;28;20228;-51
2023/07/24 07:50:32;;;;;;;6.00;5.40;;;18.60;99.90;;;;;;5113463;28;20169;-51
2023/07/24 07:52:57;;;;;;;5.90;4.50;;;18.50;99.90;;;;;;5113711;28;20173;-50
2023/07/24 07:55:23;;;;;;;5.10;4.60;;;18.60;99.90;;;;;;5113693;28;20169;-53
2023/07/24 07:57:48;;;;;;;5.15;4.50;;;18.60;99.90;;;;;;5113694;28;20173;-53
2023/07/24 08:00:14;;;;;;;4.72;4.20;;;18.70;99.90;;;;;;5113675;28;20177;-50
2023/07/24 08:02:40;;;;;;;5.15;4.05;;;18.90;99.90;;;;;;5113602;28;20565;-48
2023/07/24 08:05:10;;;;;;;4.30;3.83;;;18.90;99.90;;;;;;5113724;28;20253;-52
2023/07/24 08:07:36;;;;;;;3.78;3.47;;;18.90;99.90;;;;;;5113554;28;20208;-53
2023/07/24 08:10:03;;;;;;;4.45;4.00;;;18.90;99.90;;;;;;5113744;28;20208;-52
2023/07/24 08:12:29;;;;;;;3.80;3.50;;;19.10;99.90;;;;;;5113555;28;20173;-51
2023/07/24 08:14:56;;;;;;;3.58;3.28;;;19.20;99.90;;;;;;5116908;28;20169;-53
2023/07/24 08:17:22;;;;;;;3.83;3.40;;;19.40;99.90;;;;;;5117418;28;20213;-54
2023/07/24 08:19:47;;;;;;;4.03;3.50;;;19.50;99.90;;;;;;5116912;28;20701;-53
2023/07/24 08:22:13;;;;;;;3.42;3.15;;;19.60;99.90;;;;;;5117614;27;20187;-51
2023/07/24 08:24:38;;;;;;;4.63;2.85;;;19.40;99.90;;;;;;5117177;28;20276;-53
2023/07/24 08:27:04;;;;;;;4.45;2.95;;;19.40;99.90;;;;;;5117208;28;20654;-53
2023/07/24 08:29:30;;;;;;;3.58;2.80;;;19.20;99.90;;;;;;5116838;28;20169;-53
2023/07/24 08:31:56;;;;;;;3.10;2.58;;;19.20;99.90;;;;;;5117390;28;20254;-49
2023/07/24 08:34:22;;;;;;;2.80;2.60;;;19.20;99.90;;;;;;5117073;28;20173;-54
2023/07/24 08:36:47;;;;;;;3.40;3.10;;;19.10;99.90;;;;;;5117021;28;20181;-53
2023/07/24 08:39:13;;;;;;;4.43;3.28;;;19.20;99.90;;;;;;5116918;28;20169;-52
2023/07/24 08:41:39;;;;;;;3.45;3.15;;;19.30;99.90;;;;;;5116995;28;20177;-53
2023/07/24 08:44:08;;;;;;;3.05;2.75;;;19.30;99.90;;;;;;5116797;28;20202;-50
2023/07/24 08:46:40;;;;;;;3.75;3.33;;;19.20;99.90;;;;;;5116797;28;20178;-53
2023/07/24 08:49:15;;;;;;;2.97;2.67;;;19.10;99.90;;;;;;5116712;28;20196;-52
2023/07/24 08:51:42;;;;;;;3.25;2.95;;;19.00;99.90;;;;;;5116882;28;20202;-52
2023/07/24 08:54:09;;;;;;;3.60;3.30;;;19.00;99.90;;;;;;5116731;28;20264;-51
2023/07/24 08:56:37;;;;;;;3.95;3.10;;;19.00;99.90;;;;;;5116629;28;20237;-53
2023/07/24 08:59:02;;;;;;;3.30;3.00;;;19.20;99.90;;;;;;5116680;27;20176;-51
2023/07/24 09:01:28;;;;;;;4.85;3.22;;;19.40;99.90;;;;;;5116512;28;20526;-53
2023/07/24 09:03:54;;;;;;;3.17;2.88;;;19.60;99.90;;;;;;5116483;28;20199;-49
2023/07/24 09:06:20;;;;;;;3.47;2.75;;;19.70;99.90;;;;;;5116408;28;20553;-52
2023/07/24 09:08:45;;;;;;;4.90;2.90;;;19.80;99.90;;;;;;5116343;28;20185;-54
2023/07/24 09:11:14;;;;;;;3.28;2.97;;;19.60;99.90;;;;;;5116366;28;20188;-54
2023/07/24 09:13:41;;;;;;;3.13;2.92;;;19.70;99.90;;;;;;5116337;28;20193;-52
2023/07/24 09:16:07;;;;;;;4.70;3.13;;;19.60;99.90;;;;;;5115022;28;20263;-52
2023/07/24 09:18:43;;;;;;;3.65;3.03;;;19.50;99.90;;;;;;5116105;28;20733;-52
2023/07/24 09:21:14;;;;;;;6.88;3.08;;;19.60;99.90;;;;;;5116216;27;20165;-50
2023/07/24 09:23:40;;;;;;;5.38;3.72;;;19.70;99.90;;;;;;5115931;28;20150;-54
2023/07/24 09:26:07;;;;;;;3.30;3.00;;;19.60;99.90;;;;;;5115818;28;20205;-54
2023/07/24 09:28:34;;;;;;;3.65;3.15;;;19.80;99.90;;;;;;5116109;28;20200;-52
2023/07/24 09:31:04;;;;;;;3.92;3.10;;;19.70;99.90;;;;;;5115914;28;20263;-53
2023/07/24 09:33:40;;;;;;;4.05;3.25;;;19.50;99.90;;;;;;5116054;28;20488;-52
2023/07/24 09:36:09;;;;;;;3.88;3.45;;;19.60;99.90;;;;;;5115962;28;20222;-54
2023/07/24 09:38:35;;;;;;;3.42;3.00;;;19.60;99.90;;;;;;5115935;28;20514;-53
2023/07/24 09:41:03;;;;;;;4.35;3.30;;;19.60;99.90;;;;;;5115833;28;20215;-50
2023/07/24 09:43:29;;;;;;;4.18;3.75;;;19.70;99.90;;;;;;5115489;28;20617;-49
2023/07/24 09:45:56;;;;;;;4.00;3.60;;;19.80;99.90;;;;;;5115629;28;20202;-51
2023/07/24 09:48:24;;;;;;;3.70;3.40;;;19.90;99.90;;;;;;5115662;28;20174;-53
2023/07/24 09:50:54;;;;;;;3.72;3.42;;;20.10;99.90;;;;;;5115599;28;20231;-51
2023/07/24 09:53:38;;;;;;;6.10;3.40;;;20.30;99.90;;;;;;5115528;28;20170;-51
2023/07/24 09:56:05;;;;;;;3.60;3.30;;;20.60;99.90;;;;;;5115374;28;20623;-54
2023/07/24 09:58:39;;;;;;;3.80;3.50;;;20.80;99.90;;;;;;5115527;28;20269;-51
2023/07/24 10:01:09;;;;;;;3.83;3.53;;;20.70;99.90;;;;;;5115750;28;20557;-52
2023/07/24 10:03:49;;;;;;;3.75;3.35;;;20.70;99.90;;;;;;5115287;28;20885;-53
2023/07/24 10:06:18;;;;;;;3.20;3.00;;;20.80;99.90;;;;;;5115267;28;20661;-52
2023/07/24 10:08:44;;;;;;;3.53;3.22;;;20.70;99.90;;;;;;5115499;28;20268;-50
2023/07/24 10:11:12;;;;;;;4.47;3.35;;;20.60;99.90;;;;;;5115207;28;20166;-53
2023/07/24 10:13:38;;;;;;;4.05;3.65;;;20.60;99.90;;;;;;5114841;28;20261;-51
2023/07/24 10:16:06;;;;;;;4.00;3.47;;;20.40;99.90;;;;;;5115124;28;20233;-52
2023/07/24 10:18:33;;;;;;;5.07;3.60;;;20.30;99.90;;;;;;5114771;28;20236;-53
2023/07/24 10:21:05;;;;;;;4.88;3.42;;;20.10;99.90;;;;;;5114996;28;20168;-53
2023/07/24 10:23:33;;;;;;;5.13;4.18;;;19.90;99.90;;;;;;5114668;28;20630;-53
2023/07/24 10:26:03;;;;;;;4.88;3.70;;;19.80;99.90;;;;;;5114865;28;20546;-52
2023/07/24 10:28:40;;;;;;;3.80;3.45;;;19.80;99.90;;;;;;5114936;28;20181;-54
2023/07/24 10:31:18;;;;;;;5.72;3.78;;;19.60;99.90;;;;;;5114781;28;20189;-53
2023/07/24 10:33:45;;;;;;;4.30;3.90;;;19.50;99.90;;;;;;5114837;28;20157;-52
2023/07/24 10:36:13;;;;;;;6.22;3.83;;;19.50;99.90;;;;;;5113825;28;20634;-53
2023/07/24 10:38:42;;;;;;;6.13;4.28;;;19.40;99.90;;;;;;5114639;28;20209;-52
2023/07/24 10:41:10;;;;;;;4.80;4.10;;;19.60;99.90;;;;;;5114658;28;20533;-51
2023/07/24 10:43:49;;;;;;;5.60;4.20;;;19.50;99.90;;;;;;5114614;28;20203;-51
2023/07/24 10:46:17;;;;;;;4.82;4.43;;;19.50;99.90;;;;;;5114432;28;20221;-53
2023/07/24 10:48:51;;;;;;;6.65;4.53;;;19.60;99.90;;;;;;5114402;28;20256;-52
2023/07/24 10:51:17;;;;;;;4.70;4.20;;;19.70;99.90;;;;;;5114482;28;20188;-51
2023/07/24 10:53:46;;;;;;;4.80;3.92;;;19.60;99.90;;;;;;5114367;28;20177;-51
2023/07/24 10:56:12;;;;;;;5.93;4.25;;;19.50;99.90;;;;;;5114365;28;20264;-54
2023/07/24 10:58:38;;;;;;;6.38;4.13;;;19.40;99.90;;;;;;5114312;28;20181;-51
2023/07/24 11:01:05;;;;;;;5.15;4.22;;;19.50;99.90;;;;;;5114474;28;20177;-52
2023/07/24 11:03:31;;;;;;;5.05;4.50;;;19.60;99.90;;;;;;5114251;28;20234;-51
2023/07/24 11:05:58;;;;;;;5.05;4.50;;;19.70;99.90;;;;;;5114174;27;20200;-50
2023/07/24 11:08:24;;;;;;;4.43;4.03;;;19.90;99.90;;;;;;5114121;28;20169;-54
2023/07/24 11:10:53;;;;;;;6.80;4.43;;;20.40;99.90;;;;;;5114208;28;20590;-53
2023/07/24 11:13:28;;;;;;;4.40;4.00;;;20.80;99.90;;;;;;5114102;28;20222;-52
2023/07/24 11:15:55;;;;;;;6.18;4.70;;;21.20;99.90;;;;;;5114165;28;20192;-52
2023/07/24 11:18:22;;;;;;;5.22;4.40;;;21.10;99.90;;;;;;5114183;28;20180;-52
2023/07/24 11:20:53;;;;;;;5.15;4.38;;;20.80;99.90;;;;;;5114510;28;20169;-54
2023/07/24 11:23:19;;;;;;;6.32;5.22;;;20.70;99.90;;;;;;5114053;28;20263;-54
2023/07/24 11:25:45;;;;;;;6.43;5.60;;;20.60;99.90;;;;;;5113941;28;20201;-54
2023/07/24 11:28:13;;;;;;;7.15;5.90;;;21.00;99.90;;;;;;5114010;28;20504;-54
2023/07/24 11:30:40;;;;;;;6.88;4.97;;;21.40;99.90;;;;;;5113940;28;20169;-53
2023/07/24 11:33:08;;;;;;;7.82;5.47;;;21.80;99.90;;;;;;5113933;28;20526;-53
2023/07/24 11:35:35;;;;;;;7.47;4.50;;;21.80;99.90;;;;;;5113865;28;20188;-53
2023/07/24 11:38:01;;;;;;;6.82;4.90;;;22.00;99.90;;;;;;5113856;28;20522;-47
2023/07/24 11:40:37;;;;;;;5.65;4.93;;;22.00;99.90;;;;;;5113899;28;20173;-51
2023/07/24 11:43:03;;;;;;;5.70;4.60;;;22.20;99.90;;;;;;5113574;28;20161;-52
2023/07/24 11:45:30;;;;;;;5.07;4.50;;;22.30;99.90;;;;;;5113728;28;20707;-53
2023/07/24 11:47:56;;;;;;;5.13;4.60;;;22.20;99.90;;;;;;5115541;28;20272;-49
2023/07/24 11:50:23;;;;;;;4.53;3.90;;;21.90;99.90;;;;;;5117879;28;20189;-49
2023/07/24 11:52:53;;;;;;;8.77;4.40;;;21.60;99.90;;;;;;5117774;28;20626;-50
2023/07/24 11:55:30;;;;;;;4.05;3.65;;;21.80;99.90;;;;;;5117722;28;20154;-53
2023/07/24 11:58:03;;;;;;;3.28;2.97;;;21.80;99.90;;;;;;5117816;28;20223;-53
2023/07/24 12:00:32;;;;;;;4.43;3.75;;;21.40;99.90;;;;;;5117423;28;20549;-52
2023/07/24 12:03:04;;;;;;;4.22;3.83;;;21.20;99.90;;;;;;5117694;28;20222;-51
2023/07/24 12:05:37;;;;;;;4.72;4.20;;;21.20;99.90;;;;;;5117182;28;20769;-54
2023/07/24 12:08:02;;;;;;;6.88;4.20;;;21.30;99.90;;;;;;5117668;28;20161;-52
2023/07/24 12:10:28;;;;;;;5.30;3.75;;;21.40;99.90;;;;;;5117534;28;20185;-53
2023/07/24 12:12:57;;;;;;;5.72;4.20;;;21.40;99.90;;;;;;5117505;28;20252;-53
2023/07/24 12:15:23;;;;;;;5.88;4.15;;;21.20;99.90;;;;;;5117496;28;20180;-54
2023/07/24 12:17:49;;;;;;;8.23;4.07;;;21.10;99.90;;;;;;5117403;28;20173;-52
2023/07/24 12:20:14;;;;;;;4.32;3.58;;;21.10;99.90;;;;;;5117355;28;20228;-51
2023/07/24 12:22:41;;;;;;;6.63;4.07;;;20.80;99.90;;;;;;5117305;28;20694;-54
2023/07/24 12:25:07;;;;;;;5.13;4.32;;;20.90;99.90;;;;;;5117168;28;20215;-52
2023/07/24 12:27:33;;;;;;;4.43;3.78;;;20.80;99.90;;;;;;5117214;28;20181;-54
2023/07/24 12:29:59;;;;;;;5.68;4.20;;;20.70;99.90;;;;;;5117167;28;20172;-53
2023/07/24 12:32:24;;;;;;;5.25;4.65;;;20.50;99.90;;;;;;5117130;28;20173;-50
2023/07/24 12:34:51;;;;;;;4.43;4.03;;;20.50;99.90;;;;;;5117100;28;20261;-51
2023/07/24 12:37:18;;;;;;;6.80;4.63;;;20.50;99.90;;;;;;5117022;28;20169;-51
2023/07/24 12:39:47;;;;;;;5.30;4.07;;;20.40;99.90;;;;;;5117257;28;20177;-49
2023/07/24 12:42:14;;;;;;;5.28;3.97;;;20.40;99.90;;;;;;5116942;28;20193;-50
2023/07/24 12:44:41;;;;;;;6.45;4.32;;;20.30;99.90;;;;;;5116757;28;20193;-51
2023/07/24 12:47:07;;;;;;;5.55;4.50;;;20.50;99.90;;;;;;5116563;28;20173;-52